Startpagina
METAR-TAF:

METAR-TAF

Vliegvelden :

Belize City, Belize

Phillip Goldston

breedte: 17-32N, lengte: 088-18W, hoogte: 5 m

Actueel weer

Dit bericht is 53 minuten geleden gemaakt, om 18:00 UTC
Wind 7 kt uit het oostzuidoosten
Temperatuur 31°C
Vochtigheid 75%
Druk 1012 hPa
Zicht 10 km of meer
Gebroken wolken op 2200 ft

METAR: MZBZ 241800Z 12007KT 9999 BKN022 31/26 A2990 Q1012 NOSIG RMK DIST SHWR/NW DIST CB/W

Tijdstip: 12:53 (18:53 UTC)

Verwachting

Dit bericht is 3 uur en het 23 minuten geleden gemaakt, om 15:30 UTC
Verwachting geldig van 24 om 18 UTC tot 25 om 18 UTC
Wind 8 kt uit het oosten
Zicht 10 km of meer
Verspreide wolken op 2200 ft
Kans 30%
tussen RE en het MP UTC
Zicht: 4000 m
Verspreide wolken op 1200 ft, Cumulonimbus.
Gebroken wolken op 4500 ft
onweer, regen

TAF: MZBZ 241530Z 2418/2518 09008KT 9999 SCT022 PROB30 REMPO 2510/2515 4000 TSRA SCT012CB BKN045

Waarnemingen en weersverwachtingen van meer dan 4000 vliegvelden (METAR en TAF).

De beschikbare stations zijn de gele en rode punten op de kaart.

Ga met uw muis naar het station om de naam te zien.

Klik dan om waarnemingen en weersverwachtingen te zien.

kaart wijzigen: klik op de groene knoppen met een zwart kruis om in te zoomen, op de groene knop met een streepje om uit te zoomen of op de groene pijlen voor aangrenzende kaarten.


METAR-TAF: